Time;durP1;ratioP1;P1;durP2;ratioP2;P2;SDS_P1;SDS_P2;PMS_P1;PMS_P2;Temp;Humidity;BMP_temperature;BMP_pressure;BME280_temperature;BME280_humidity;BME280_pressure;Samples;Min_cycle;Max_cycle;Signal;HPM_P1;HPM_P2
2023/12/07 00:00:55;;;;;;;77.07;34.70;;;-1.90;99.90;;;;;;10380021;28;20433;-82
2023/12/07 00:06:16;;;;;;;74.13;35.57;;;-1.90;99.90;;;;;;10375306;28;20199;-82
2023/12/07 00:11:37;;;;;;;76.23;34.10;;;-1.90;1.00;;;;;;10396080;28;20255;-82
2023/12/07 00:16:59;;;;;;;75.73;36.07;;;-1.90;99.90;;;;;;10376608;28;20208;-82
2023/12/07 00:22:20;;;;;;;79.50;36.37;;;-1.90;1.00;;;;;;10392920;28;20199;-82
2023/12/07 00:27:42;;;;;;;81.40;36.20;;;-1.90;1.00;;;;;;10388242;28;20202;-82
2023/12/07 00:33:03;;;;;;;77.43;33.50;;;-1.80;1.00;;;;;;10387466;28;20229;-82
2023/12/07 00:38:24;;;;;;;84.00;38.17;;;-1.80;99.90;;;;;;10401223;28;20280;-83
2023/12/07 00:43:47;;;;;;;76.27;35.83;;;-1.80;1.00;;;;;;10402421;28;20189;-82
2023/12/07 00:49:08;;;;;;;80.90;37.23;;;-1.90;99.90;;;;;;10412886;28;20245;-83
2023/12/07 00:54:30;;;;;;;76.00;35.53;;;-1.80;1.00;;;;;;10400619;28;20226;-82
2023/12/07 00:59:51;;;;;;;77.47;34.70;;;-1.90;1.00;;;;;;10378866;28;20198;-82
2023/12/07 01:05:12;;;;;;;90.10;37.10;;;-1.90;99.90;;;;;;10347961;28;20197;-83
2023/12/07 01:10:34;;;;;;;82.07;35.80;;;-1.90;1.00;;;;;;10386383;28;20245;-83
2023/12/07 01:15:55;;;;;;;78.57;35.33;;;-1.80;1.00;;;;;;10399574;28;20193;-83
2023/12/07 01:21:17;;;;;;;75.23;35.03;;;-1.80;99.90;;;;;;10399313;28;20197;-83
2023/12/07 01:26:39;;;;;;;77.67;34.90;;;-1.80;1.00;;;;;;10385736;28;20221;-83
2023/12/07 01:32:01;;;;;;;80.33;34.90;;;-1.70;76.40;;;;;;10385264;28;20230;-81
2023/12/07 01:37:22;;;;;;;77.93;36.10;;;-1.70;1.00;;;;;;10399343;28;20557;-80
2023/12/07 01:42:51;;;;;;;77.00;34.70;;;-1.70;1.00;;;;;;10398867;28;20197;-82
2023/12/07 01:48:12;;;;;;;84.03;35.10;;;-1.80;99.90;;;;;;10397944;28;20210;-81
2023/12/07 01:53:35;;;;;;;80.27;35.13;;;-1.80;99.90;;;;;;10398250;28;20234;-83
2023/12/07 01:58:57;;;;;;;77.77;35.43;;;-1.80;1.00;;;;;;10398003;28;20208;-81
2023/12/07 02:04:18;;;;;;;80.53;35.23;;;-1.70;95.90;;;;;;10383666;28;20270;-81
2023/12/07 02:09:40;;;;;;;81.37;34.43;;;-1.70;1.00;;;;;;10398006;28;20226;-81
2023/12/07 02:15:02;;;;;;;79.67;35.50;;;-1.60;1.00;;;;;;10383194;28;20201;-81
2023/12/07 02:20:45;;;;;;;77.13;33.80;;;-1.60;51.80;;;;;;10396988;28;20216;-81
2023/12/07 02:26:08;;;;;;;73.20;34.43;;;-1.60;99.90;;;;;;10420171;28;20194;-82
2023/12/07 02:31:30;;;;;;;78.87;34.13;;;-1.60;99.90;;;;;;10421503;28;20233;-82
2023/12/07 02:36:57;;;;;;;79.10;36.33;;;-1.50;1.00;;;;;;10409460;28;20221;-82
2023/12/07 02:42:20;;;;;;;73.13;35.50;;;-1.60;1.00;;;;;;10403848;28;20191;-80
2023/12/07 02:47:45;;;;;;;81.67;37.07;;;-1.70;1.00;;;;;;10388597;28;20222;-81
2023/12/07 02:53:06;;;;;;;74.00;33.37;;;-1.70;99.90;;;;;;10386418;28;20239;-82
2023/12/07 02:58:27;;;;;;;81.73;35.03;;;-1.70;1.00;;;;;;10396132;28;20432;-82
2023/12/07 03:03:48;;;;;;;74.30;32.77;;;-1.50;1.00;;;;;;10395068;28;20213;-80
2023/12/07 03:09:10;;;;;;;79.20;33.53;;;-1.50;1.00;;;;;;10355305;28;20283;-81
2023/12/07 03:14:31;;;;;;;75.57;33.67;;;-1.50;1.00;;;;;;10355906;28;20218;-81
2023/12/07 03:19:52;;;;;;;76.33;34.47;;;-1.50;99.90;;;;;;10354721;28;20238;-81
2023/12/07 03:25:13;;;;;;;69.13;32.20;;;-1.50;99.90;;;;;;10340949;28;20237;-81
2023/12/07 03:30:35;;;;;;;80.47;34.17;;;-1.40;99.90;;;;;;10356484;28;20241;-80
2023/12/07 03:35:56;;;;;;;75.83;35.03;;;-1.40;1.00;;;;;;10393128;28;20206;-82
2023/12/07 03:41:18;;;;;;;77.57;35.00;;;-1.60;1.00;;;;;;10381037;28;20413;-82
2023/12/07 03:46:39;;;;;;;85.60;34.73;;;-1.60;1.00;;;;;;10396912;28;20505;-82
2023/12/07 03:52:02;;;;;;;75.13;34.47;;;-1.50;1.00;;;;;;10380182;28;20303;-82
2023/12/07 03:57:23;;;;;;;76.37;34.00;;;-1.50;1.00;;;;;;10383381;28;20285;-82
2023/12/07 04:02:44;;;;;;;72.47;33.67;;;-1.40;1.00;;;;;;10405645;28;20226;-81
2023/12/07 04:08:05;;;;;;;80.40;33.60;;;-1.50;1.00;;;;;;10407639;28;20197;-83
2023/12/07 04:13:27;;;;;;;77.23;32.20;;;-1.50;99.90;;;;;;10393490;28;20221;-82
2023/12/07 04:18:48;;;;;;;76.80;33.47;;;-1.50;99.90;;;;;;10393546;28;20195;-82
2023/12/07 04:24:09;;;;;;;70.30;32.50;;;-1.40;1.00;;;;;;10407063;28;20231;-82
2023/12/07 04:29:30;;;;;;;73.60;33.57;;;-1.50;1.00;;;;;;10393034;28;20232;-82
2023/12/07 04:34:53;;;;;;;88.67;38.43;;;-1.40;99.90;;;;;;10405676;28;20213;-81
2023/12/07 04:40:15;;;;;;;79.00;32.67;;;-1.40;1.00;;;;;;10378775;28;20284;-81
2023/12/07 04:45:36;;;;;;;79.93;34.13;;;-1.50;1.00;;;;;;10393782;28;20223;-82
2023/12/07 04:50:58;;;;;;;74.83;32.03;;;-1.50;1.00;;;;;;10400930;28;20247;-82
2023/12/07 04:56:20;;;;;;;71.70;32.60;;;-1.40;30.00;;;;;;10407713;28;20496;-82
2023/12/07 05:01:41;;;;;;;81.87;34.40;;;-1.40;80.40;;;;;;10392560;28;20199;-82
2023/12/07 05:07:03;;;;;;;76.47;34.00;;;-1.30;1.00;;;;;;10392490;28;20298;-82
2023/12/07 05:12:25;;;;;;;81.47;34.33;;;-1.40;1.00;;;;;;10385599;28;20227;-82
2023/12/07 05:17:46;;;;;;;80.83;35.53;;;-1.40;1.00;;;;;;10386061;28;20199;-81
2023/12/07 05:23:07;;;;;;;72.20;31.17;;;-1.40;1.00;;;;;;10399750;28;20198;-82
2023/12/07 05:28:29;;;;;;;74.70;33.13;;;-1.30;67.80;;;;;;10385234;28;20198;-81
2023/12/07 05:33:50;;;;;;;71.83;31.67;;;-1.30;39.60;;;;;;10385023;28;20261;-82
2023/12/07 05:39:13;;;;;;;78.07;32.03;;;-1.30;99.90;;;;;;10398225;28;20208;-82
2023/12/07 05:44:34;;;;;;;71.27;31.57;;;-1.20;1.00;;;;;;10398633;28;20249;-82
2023/12/07 05:49:58;;;;;;;75.83;34.47;;;-1.20;1.00;;;;;;10398339;28;20285;-82
2023/12/07 05:55:19;;;;;;;85.10;38.13;;;-1.20;1.00;;;;;;10398306;28;20206;-83
2023/12/07 06:00:40;;;;;;;142.03;61.27;;;-1.20;1.00;;;;;;10398142;28;20206;-81
2023/12/07 06:06:02;;;;;;;147.50;63.33;;;-1.10;1.00;;;;;;10410113;28;20218;-82
2023/12/07 06:11:23;;;;;;;126.87;52.57;;;-1.10;99.90;;;;;;10397417;28;20301;-83
2023/12/07 06:16:44;;;;;;;83.97;38.60;;;-1.00;1.00;;;;;;10370136;28;20195;-83
2023/12/07 06:22:06;;;;;;;73.73;34.00;;;-1.10;99.90;;;;;;10382257;28;20278;-83
2023/12/07 06:27:27;;;;;;;87.13;38.83;;;-1.10;1.00;;;;;;10410871;28;20469;-83
2023/12/07 06:32:49;;;;;;;110.60;45.90;;;-1.20;1.00;;;;;;10410028;28;20290;-84
2023/12/07 06:38:10;;;;;;;104.13;45.07;;;-1.00;99.90;;;;;;10399180;28;20220;-84
2023/12/07 06:43:31;;;;;;;107.03;46.73;;;-0.90;1.00;;;;;;10383226;28;20535;-81
2023/12/07 06:48:53;;;;;;;129.77;54.53;;;-0.80;45.60;;;;;;10382569;28;20238;-82
2023/12/07 06:54:14;;;;;;;113.97;50.90;;;-0.80;1.00;;;;;;10395643;28;20242;-81
2023/12/07 06:59:36;;;;;;;95.83;46.57;;;-0.80;1.00;;;;;;10395950;28;20393;-82
2023/12/07 07:05:00;;;;;;;82.43;37.47;;;-0.70;99.90;;;;;;10373812;28;20207;-82
2023/12/07 07:10:21;;;;;;;82.27;35.73;;;-0.80;1.00;;;;;;10389127;28;20238;-81
2023/12/07 07:15:43;;;;;;;89.27;39.50;;;-0.90;1.00;;;;;;10390849;28;20202;-81
2023/12/07 07:21:05;;;;;;;88.37;38.20;;;-0.90;1.00;;;;;;10404920;28;20214;-81
2023/12/07 07:26:26;;;;;;;82.60;36.03;;;-1.00;1.00;;;;;;10394897;28;20201;-83
2023/12/07 07:31:48;;;;;;;79.87;33.97;;;-1.00;99.90;;;;;;10366377;28;20304;-82
2023/12/07 07:37:09;;;;;;;80.60;35.60;;;-1.00;99.90;;;;;;10394760;28;20207;-84
2023/12/07 07:42:31;;;;;;;98.70;40.57;;;-1.00;99.90;;;;;;10380967;28;20202;-83
2023/12/07 07:47:52;;;;;;;78.23;36.30;;;-0.90;99.90;;;;;;10396957;28;20222;-81
2023/12/07 07:53:13;;;;;;;102.60;39.67;;;-0.80;99.90;;;;;;10393513;28;20239;-82
2023/12/07 07:58:35;;;;;;;94.70;42.30;;;-0.70;1.00;;;;;;10366727;28;20226;-81
2023/12/07 08:03:56;;;;;;;91.13;41.40;;;-0.70;1.00;;;;;;10395137;28;20199;-81
2023/12/07 08:09:17;;;;;;;76.33;36.70;;;-0.70;99.90;;;;;;10408136;28;20241;-81
2023/12/07 08:14:39;;;;;;;88.20;38.57;;;-0.70;79.60;;;;;;10381590;28;20224;-81
2023/12/07 08:20:01;;;;;;;79.20;35.20;;;-0.80;1.00;;;;;;10397583;28;20207;-82
2023/12/07 08:25:22;;;;;;;82.23;35.27;;;-0.80;1.00;;;;;;10380953;28;20195;-81
2023/12/07 08:30:43;;;;;;;73.70;32.97;;;-0.70;1.00;;;;;;10344545;28;20592;-79
2023/12/07 08:36:06;;;;;;;71.13;32.33;;;-0.70;99.90;;;;;;10346223;28;20246;-80
2023/12/07 08:41:27;;;;;;;73.60;33.80;;;-0.70;32.80;;;;;;10377096;28;20239;-79
2023/12/07 08:46:49;;;;;;;80.97;36.00;;;-0.60;99.90;;;;;;10402725;28;20213;-78
2023/12/07 08:52:10;;;;;;;76.10;35.17;;;-0.50;1.00;;;;;;10394464;28;20279;-80
2023/12/07 08:57:36;;;;;;;77.37;35.70;;;-0.40;1.00;;;;;;10394313;28;20262;-79
2023/12/07 09:02:57;;;;;;;78.77;36.27;;;-0.30;1.00;;;;;;10406345;28;20295;-79
2023/12/07 09:08:18;;;;;;;82.63;36.50;;;-0.20;1.00;;;;;;10385915;28;20526;-79
2023/12/07 09:13:40;;;;;;;105.17;46.13;;;-0.40;1.00;;;;;;10379813;28;20231;-79
2023/12/07 09:19:01;;;;;;;80.57;36.77;;;-0.30;1.00;;;;;;10409985;28;20255;-80
2023/12/07 09:24:23;;;;;;;69.50;33.23;;;-0.40;99.90;;;;;;10376839;28;20269;-79
2023/12/07 09:29:44;;;;;;;76.07;35.27;;;-0.30;99.90;;;;;;10399721;28;20215;-78
2023/12/07 09:35:07;;;;;;;80.77;36.27;;;-0.20;1.00;;;;;;10379567;28;20214;-79
2023/12/07 09:40:30;;;;;;;75.47;37.50;;;-0.20;99.90;;;;;;10377595;28;20207;-80
2023/12/07 09:45:54;;;;;;;69.53;33.27;;;-0.10;98.00;;;;;;10394332;28;20441;-82
2023/12/07 09:51:16;;;;;;;77.60;34.97;;;-0.10;99.90;;;;;;10377252;28;20339;-79
2023/12/07 09:56:37;;;;;;;71.93;34.80;;;-0.10;1.00;;;;;;10383511;28;20236;-81
2023/12/07 10:02:00;;;;;;;77.97;37.77;;;0.00;99.90;;;;;;10392258;28;20199;-80
2023/12/07 10:07:33;;;;;;;84.93;38.97;;;0.10;1.00;;;;;;10392758;28;20577;-79
2023/12/07 10:12:58;;;;;;;87.27;40.47;;;-0.10;99.90;;;;;;10378424;28;20247;-79
2023/12/07 10:18:24;;;;;;;110.83;48.17;;;0.00;99.90;;;;;;10391459;28;20204;-79
2023/12/07 10:23:47;;;;;;;81.37;36.10;;;0.10;1.00;;;;;;10374084;28;20463;-78
2023/12/07 10:29:10;;;;;;;74.90;36.13;;;0.10;99.90;;;;;;10364659;28;20220;-78
2023/12/07 10:34:37;;;;;;;80.17;36.83;;;0.20;1.00;;;;;;10381741;28;20329;-85
2023/12/07 10:39:58;;;;;;;99.20;44.97;;;0.10;1.00;;;;;;10390632;28;20212;-81
2023/12/07 10:45:21;;;;;;;71.90;34.40;;;0.20;99.90;;;;;;10378508;28;20204;-82
2023/12/07 10:50:46;;;;;;;80.23;36.50;;;0.20;1.00;;;;;;10390614;28;20575;-86
2023/12/07 10:56:11;;;;;;;77.30;37.10;;;0.30;1.00;;;;;;10377036;28;20215;-81
2023/12/07 11:01:34;;;;;;;70.87;31.00;;;0.20;1.00;;;;;;10347708;28;20195;-82
2023/12/07 11:07:12;;;;;;;81.57;35.73;;;0.30;1.00;;;;;;10387612;28;20215;-81
2023/12/07 11:12:45;;;;;;;71.97;34.23;;;0.20;99.90;;;;;;10348972;28;20232;-81
2023/12/07 11:18:07;;;;;;;75.30;34.03;;;0.20;1.00;;;;;;10361111;28;20260;-82
2023/12/07 11:23:29;;;;;;;70.33;32.87;;;0.10;1.00;;;;;;10348997;28;20228;-83
2023/12/07 11:28:51;;;;;;;87.10;41.03;;;0.20;52.20;;;;;;10379947;28;20314;-82
2023/12/07 11:34:15;;;;;;;89.50;43.20;;;0.20;1.00;;;;;;10391501;28;20235;-82
2023/12/07 11:39:45;;;;;;;70.00;33.07;;;0.20;1.00;;;;;;10388333;28;20201;-81
2023/12/07 11:45:07;;;;;;;72.13;33.50;;;0.30;99.90;;;;;;10381013;28;20218;-84
2023/12/07 11:50:29;;;;;;;73.00;33.93;;;0.30;99.90;;;;;;10389247;28;20236;-81
2023/12/07 11:55:51;;;;;;;65.53;32.00;;;0.30;1.00;;;;;;10403206;28;20246;-93
2023/12/07 12:01:13;;;;;;;74.03;33.73;;;0.50;1.00;;;;;;10388518;28;20197;-81
2023/12/07 12:06:35;;;;;;;73.67;35.67;;;0.50;99.90;;;;;;10375703;28;20201;-83
2023/12/07 12:12:00;;;;;;;84.83;40.27;;;0.40;99.90;;;;;;10373980;28;20270;-83
2023/12/07 12:17:22;;;;;;;77.03;36.47;;;0.40;1.00;;;;;;10389949;28;20207;-83
2023/12/07 12:22:43;;;;;;;77.27;35.80;;;0.40;99.90;;;;;;10371243;28;20206;-82
2023/12/07 12:28:06;;;;;;;77.03;35.40;;;0.20;1.00;;;;;;10383681;28;20529;-85
2023/12/07 12:33:31;;;;;;;84.63;37.40;;;0.20;1.00;;;;;;10359380;28;20230;-79
2023/12/07 12:38:52;;;;;;;70.30;35.60;;;0.30;99.90;;;;;;10380409;28;20383;-83
2023/12/07 12:44:14;;;;;;;71.73;35.30;;;0.30;1.00;;;;;;10385079;28;20199;-84
2023/12/07 12:49:43;;;;;;;82.87;41.77;;;0.40;1.00;;;;;;10423063;28;20200;-80
2023/12/07 12:55:11;;;;;;;78.07;42.17;;;0.50;1.00;;;;;;10388198;28;20236;-85
2023/12/07 13:00:34;;;;;;;76.30;36.77;;;0.40;99.90;;;;;;10383743;28;20220;-79
2023/12/07 13:05:55;;;;;;;93.67;41.50;;;0.40;99.90;;;;;;10392387;28;20211;-81
2023/12/07 13:11:18;;;;;;;95.93;42.63;;;0.40;1.00;;;;;;10358532;28;20282;-85
2023/12/07 13:16:40;;;;;;;86.53;40.53;;;0.50;1.00;;;;;;10397337;28;20188;-84
2023/12/07 13:22:03;;;;;;;98.20;48.03;;;0.40;99.90;;;;;;10394487;28;20212;-85
2023/12/07 13:27:24;;;;;;;97.87;46.50;;;0.30;1.00;;;;;;10391793;28;20497;-81
2023/12/07 13:32:46;;;;;;;92.40;42.27;;;0.40;99.90;;;;;;10390727;28;20282;-81
2023/12/07 13:38:07;;;;;;;118.20;58.70;;;0.40;1.00;;;;;;10365671;28;20284;-81
2023/12/07 13:43:29;;;;;;;129.13;52.70;;;0.40;99.90;;;;;;10376964;28;20223;-81
2023/12/07 13:48:51;;;;;;;110.00;53.23;;;0.40;1.00;;;;;;10394163;28;20286;-82
2023/12/07 13:54:12;;;;;;;170.03;81.13;;;0.40;99.90;;;;;;10383769;28;20239;-86
2023/12/07 13:59:42;;;;;;;151.43;99.50;;;0.40;1.00;;;;;;10389800;28;20209;-79
2023/12/07 14:05:04;;;;;;;172.03;107.20;;;0.40;99.90;;;;;;10380187;28;20192;-83
2023/12/07 14:10:26;;;;;;;195.60;114.80;;;0.40;99.90;;;;;;10394306;28;20200;-83
2023/12/07 14:15:48;;;;;;;394.90;243.53;;;0.40;1.00;;;;;;10389892;28;20231;-84
2023/12/07 14:21:11;;;;;;;134.90;76.50;;;0.40;1.00;;;;;;10376736;28;20238;-84
2023/12/07 14:26:33;;;;;;;217.13;136.87;;;0.40;1.00;;;;;;10379023;28;20225;-84
2023/12/07 14:31:55;;;;;;;87.67;49.30;;;0.50;1.00;;;;;;10376596;28;20240;-80
2023/12/07 14:37:16;;;;;;;96.00;49.93;;;0.60;1.00;;;;;;10389196;28;20197;-80
2023/12/07 14:42:38;;;;;;;92.53;46.70;;;0.60;1.00;;;;;;10388404;28;20204;-81
2023/12/07 14:47:59;;;;;;;80.33;41.63;;;0.60;1.00;;;;;;10377423;28;20210;-80
2023/12/07 14:53:23;;;;;;;96.70;43.17;;;0.70;1.00;;;;;;10373516;28;20308;-82
2023/12/07 14:58:44;;;;;;;108.83;53.27;;;0.70;1.00;;;;;;10362670;28;20206;-82
2023/12/07 15:04:05;;;;;;;179.90;91.73;;;0.70;1.00;;;;;;10388009;28;20228;-82
2023/12/07 15:09:28;;;;;;;145.03;83.23;;;0.70;1.00;;;;;;10372890;28;20276;-82
2023/12/07 15:14:49;;;;;;;100.83;54.43;;;0.60;1.00;;;;;;10361442;28;20527;-82
2023/12/07 15:20:11;;;;;;;77.80;39.10;;;0.60;99.90;;;;;;10384984;28;20217;-81
2023/12/07 15:25:32;;;;;;;83.37;40.83;;;0.60;99.90;;;;;;10374642;28;20284;-85
2023/12/07 15:30:54;;;;;;;87.17;42.40;;;0.50;99.90;;;;;;10389660;28;20532;-82
2023/12/07 15:36:15;;;;;;;251.33;118.33;;;0.50;1.00;;;;;;10389154;28;20208;-84
2023/12/07 15:41:37;;;;;;;162.70;78.43;;;0.40;1.00;;;;;;10392638;28;20211;-79
2023/12/07 15:46:58;;;;;;;379.13;192.83;;;0.50;17.90;;;;;;10390909;28;20207;-81
2023/12/07 15:52:19;;;;;;;270.73;180.63;;;0.60;1.00;;;;;;10390201;28;20557;-81
2023/12/07 15:57:41;;;;;;;121.13;76.40;;;0.50;1.00;;;;;;10388648;28;20235;-81
2023/12/07 16:03:03;;;;;;;78.43;40.47;;;0.50;8.50;;;;;;10377503;28;20200;-78
2023/12/07 16:08:24;;;;;;;78.07;38.37;;;0.50;1.00;;;;;;10393266;28;20203;-85
2023/12/07 16:13:46;;;;;;;75.33;36.73;;;0.50;1.00;;;;;;10379780;28;20247;-85
2023/12/07 16:19:07;;;;;;;77.80;34.43;;;0.50;99.90;;;;;;10379695;28;20200;-85
2023/12/07 16:24:28;;;;;;;81.93;37.40;;;0.40;99.90;;;;;;10377029;28;20191;-84
2023/12/07 16:29:50;;;;;;;81.67;40.33;;;0.40;1.00;;;;;;10350731;28;20222;-85
2023/12/07 16:35:12;;;;;;;103.60;57.13;;;0.30;99.90;;;;;;10350210;28;20229;-83
2023/12/07 16:40:33;;;;;;;96.93;55.23;;;0.30;99.90;;;;;;10386042;28;20209;-85
2023/12/07 16:45:54;;;;;;;78.83;41.70;;;0.40;1.00;;;;;;10366966;28;20201;-84
2023/12/07 16:51:18;;;;;;;82.93;39.43;;;0.40;99.90;;;;;;10385890;28;20329;-85
2023/12/07 16:56:39;;;;;;;94.77;43.10;;;0.30;1.00;;;;;;10405575;28;20201;-84
2023/12/07 17:02:03;;;;;;;88.37;41.17;;;0.30;1.00;;;;;;10408013;28;20226;-85
2023/12/07 17:07:24;;;;;;;83.53;39.93;;;0.30;1.00;;;;;;10397502;28;20246;-84
2023/12/07 17:12:45;;;;;;;90.77;40.47;;;0.30;1.00;;;;;;10386979;28;20527;-84
2023/12/07 17:18:07;;;;;;;88.87;40.30;;;0.40;1.00;;;;;;10403034;28;20225;-84
2023/12/07 17:23:29;;;;;;;88.63;40.10;;;0.40;1.00;;;;;;10399115;28;20226;-83
2023/12/07 17:28:50;;;;;;;85.60;40.17;;;0.30;1.00;;;;;;10395061;28;20291;-85
2023/12/07 17:34:11;;;;;;;85.20;38.57;;;0.30;1.00;;;;;;10414228;28;20638;-84
2023/12/07 17:39:33;;;;;;;86.67;38.87;;;0.20;99.90;;;;;;10400211;28;20294;-84
2023/12/07 17:44:54;;;;;;;90.17;40.90;;;0.20;99.90;;;;;;10385863;28;20214;-84
2023/12/07 17:50:16;;;;;;;101.23;45.60;;;0.20;1.00;;;;;;10398416;28;20199;-82
2023/12/07 17:55:37;;;;;;;97.60;40.97;;;0.20;1.00;;;;;;10399381;28;20287;-84
2023/12/07 18:00:58;;;;;;;97.73;41.70;;;0.20;1.00;;;;;;10397490;28;20189;-83
2023/12/07 18:06:19;;;;;;;104.07;43.57;;;0.30;1.00;;;;;;10397583;28;20235;-84
2023/12/07 18:11:42;;;;;;;90.93;39.40;;;0.30;1.00;;;;;;10344813;28;20232;-84
2023/12/07 18:17:04;;;;;;;100.67;42.50;;;0.30;1.00;;;;;;10357996;28;20283;-84
2023/12/07 18:22:26;;;;;;;100.97;42.83;;;0.20;1.00;;;;;;10357883;28;20204;-84
2023/12/07 18:27:47;;;;;;;88.67;39.10;;;0.20;1.00;;;;;;10359112;28;20200;-82
2023/12/07 18:33:08;;;;;;;112.70;48.93;;;0.20;1.00;;;;;;10368618;28;20242;-82
2023/12/07 18:38:29;;;;;;;101.57;44.10;;;0.20;1.00;;;;;;10411877;28;20196;-82
2023/12/07 18:43:51;;;;;;;99.30;43.57;;;0.20;1.00;;;;;;10411128;28;20208;-82
2023/12/07 18:49:13;;;;;;;93.57;39.30;;;0.20;1.00;;;;;;10403317;28;20197;-82
2023/12/07 18:54:38;;;;;;;97.23;39.73;;;0.10;1.00;;;;;;10389682;28;20238;-82
2023/12/07 18:59:59;;;;;;;111.37;45.73;;;0.10;1.00;;;;;;10356105;28;20276;-82
2023/12/07 19:05:21;;;;;;;128.27;53.73;;;0.20;1.00;;;;;;10401070;28;20217;-84
2023/12/07 19:10:42;;;;;;;108.17;46.80;;;0.20;1.00;;;;;;10382959;28;20388;-84
2023/12/07 19:16:04;;;;;;;127.47;51.30;;;0.20;1.00;;;;;;10369072;28;20203;-84
2023/12/07 19:21:25;;;;;;;135.53;52.53;;;0.30;1.00;;;;;;10354991;28;20206;-83
2023/12/07 19:26:47;;;;;;;125.20;50.53;;;0.20;1.00;;;;;;10380016;28;20215;-84
2023/12/07 19:32:08;;;;;;;115.77;46.70;;;0.20;1.00;;;;;;10395001;28;20232;-82
2023/12/07 19:37:30;;;;;;;137.13;53.70;;;0.20;1.00;;;;;;10395514;28;20200;-81
2023/12/07 19:42:52;;;;;;;135.13;50.60;;;0.20;1.00;;;;;;10394709;28;20225;-82
2023/12/07 19:48:13;;;;;;;102.40;44.70;;;0.20;1.00;;;;;;10394884;28;20205;-83
2023/12/07 19:53:34;;;;;;;105.93;43.10;;;0.30;1.00;;;;;;10394825;28;20557;-81
2023/12/07 19:58:56;;;;;;;108.17;44.47;;;0.30;1.00;;;;;;10364149;28;20207;-82
2023/12/07 20:04:17;;;;;;;116.90;51.43;;;0.30;1.00;;;;;;10394800;28;20418;-82
2023/12/07 20:09:39;;;;;;;109.50;46.27;;;0.50;1.00;;;;;;10393396;28;20279;-84
2023/12/07 20:15:03;;;;;;;110.20;43.90;;;0.50;1.00;;;;;;10392721;28;20540;-83
2023/12/07 20:20:26;;;;;;;106.03;44.93;;;0.50;1.00;;;;;;10391043;28;20193;-83
2023/12/07 20:25:47;;;;;;;104.20;44.13;;;0.40;1.00;;;;;;10393248;28;20197;-84
2023/12/07 20:31:09;;;;;;;104.20;45.07;;;0.50;1.00;;;;;;10391779;28;20419;-82
2023/12/07 20:36:30;;;;;;;105.00;41.77;;;0.50;1.00;;;;;;10392860;28;20203;-82
2023/12/07 20:41:51;;;;;;;95.83;41.20;;;0.60;1.00;;;;;;10397696;28;20196;-81
2023/12/07 20:47:12;;;;;;;128.93;51.27;;;0.60;99.90;;;;;;10415759;28;20596;-84
2023/12/07 20:52:34;;;;;;;139.13;57.17;;;0.50;1.00;;;;;;10413123;28;20274;-82
2023/12/07 20:57:55;;;;;;;122.10;52.17;;;0.50;1.00;;;;;;10402563;28;20239;-84
2023/12/07 21:03:16;;;;;;;108.17;45.30;;;0.60;1.00;;;;;;10374207;28;20205;-82
2023/12/07 21:08:38;;;;;;;108.70;47.07;;;0.60;99.90;;;;;;10388585;28;20214;-83
2023/12/07 21:14:00;;;;;;;100.47;41.80;;;0.50;1.00;;;;;;10372302;28;20255;-82
2023/12/07 21:19:23;;;;;;;117.67;46.67;;;0.50;1.00;;;;;;10403194;28;20402;-82
2023/12/07 21:24:44;;;;;;;116.00;47.70;;;0.60;99.90;;;;;;10386318;28;20200;-82
2023/12/07 21:30:06;;;;;;;123.13;50.13;;;0.50;99.90;;;;;;10400222;28;20269;-82
2023/12/07 21:35:27;;;;;;;117.50;50.57;;;0.60;1.00;;;;;;10413801;28;20240;-82
2023/12/07 21:40:50;;;;;;;133.70;46.83;;;0.60;1.00;;;;;;10383992;28;20221;-82
2023/12/07 21:46:11;;;;;;;114.57;45.07;;;0.60;99.90;;;;;;10400688;28;20379;-84
2023/12/07 21:51:32;;;;;;;128.50;48.20;;;0.60;99.90;;;;;;10397512;28;20243;-83
2023/12/07 21:56:54;;;;;;;110.80;42.83;;;0.60;99.90;;;;;;10371542;28;20204;-83
2023/12/07 22:02:17;;;;;;;104.47;43.23;;;0.70;99.90;;;;;;10385856;28;20196;-83
2023/12/07 22:07:38;;;;;;;98.07;40.27;;;0.60;99.90;;;;;;10383360;28;20207;-82
2023/12/07 22:12:59;;;;;;;124.40;45.17;;;0.50;99.90;;;;;;10384765;28;20228;-82
2023/12/07 22:18:21;;;;;;;135.60;55.13;;;0.50;1.00;;;;;;10399449;28;20266;-83
2023/12/07 22:23:42;;;;;;;113.80;46.10;;;0.50;1.00;;;;;;10397122;28;20291;-82
2023/12/07 22:29:03;;;;;;;122.37;46.73;;;0.50;1.00;;;;;;10384938;28;20368;-84
2023/12/07 22:34:24;;;;;;;117.27;43.93;;;0.50;1.00;;;;;;10391053;28;20221;-82
2023/12/07 22:39:46;;;;;;;97.40;41.30;;;0.50;99.90;;;;;;10403185;28;20192;-82
2023/12/07 22:45:08;;;;;;;97.80;40.20;;;0.50;99.90;;;;;;10379917;28;20196;-84
2023/12/07 22:50:30;;;;;;;91.77;39.57;;;0.50;1.00;;;;;;10421759;28;20196;-83
2023/12/07 22:55:51;;;;;;;96.03;40.93;;;0.50;1.00;;;;;;10384178;28;20225;-83
2023/12/07 23:01:13;;;;;;;100.63;42.07;;;0.40;1.00;;;;;;10383362;28;20246;-83
2023/12/07 23:06:37;;;;;;;90.50;38.97;;;0.40;1.00;;;;;;10366778;28;20207;-84
2023/12/07 23:12:00;;;;;;;96.93;40.63;;;0.40;1.00;;;;;;10382735;28;20215;-83
2023/12/07 23:17:22;;;;;;;97.77;42.57;;;0.50;1.00;;;;;;10382627;28;20713;-82
2023/12/07 23:22:44;;;;;;;96.80;40.93;;;0.40;99.90;;;;;;10381139;28;20215;-82
2023/12/07 23:28:05;;;;;;;90.73;40.23;;;0.30;1.00;;;;;;10396091;28;20269;-80
2023/12/07 23:33:26;;;;;;;98.60;41.57;;;0.40;1.00;;;;;;10382987;28;20248;-82
2023/12/07 23:38:48;;;;;;;92.33;39.50;;;0.40;1.00;;;;;;10381864;28;20204;-82
2023/12/07 23:44:09;;;;;;;88.13;40.00;;;0.50;99.90;;;;;;10395643;28;20210;-82
2023/12/07 23:49:31;;;;;;;95.17;41.07;;;0.50;99.90;;;;;;10380447;28;20201;-82
2023/12/07 23:54:52;;;;;;;108.90;44.93;;;0.30;1.00;;;;;;10380627;28;20431;-84
